Time;durP1;ratioP1;P1;durP2;ratioP2;P2;SDS_P1;SDS_P2;PMS_P1;PMS_P2;Temp;Humidity;BMP_temperature;BMP_pressure;BME280_temperature;BME280_humidity;BME280_pressure;Samples;Min_cycle;Max_cycle;Signal;HPM_P1;HPM_P2
2024/02/17 00:01:16;;;;;;;11.20;2.35;;;14.90;99.90;;;;;;7396614;19;20007;-78
2024/02/17 00:03:52;;;;;;;11.95;2.22;;;14.80;99.90;;;;;;7396855;19;20051;-79
2024/02/17 00:06:23;;;;;;;10.35;2.50;;;14.80;99.90;;;;;;7396193;19;20009;-79
2024/02/17 00:08:54;;;;;;;20.08;2.15;;;14.80;99.90;;;;;;7393832;19;20007;-79
2024/02/17 00:11:28;;;;;;;9.63;2.15;;;14.90;99.90;;;;;;7391840;19;20007;-79
2024/02/17 00:13:59;;;;;;;13.55;2.08;;;14.80;99.90;;;;;;7414951;19;20021;-78
2024/02/17 00:16:33;;;;;;;12.60;2.35;;;14.90;99.90;;;;;;7391655;19;20029;-79
2024/02/17 00:19:11;;;;;;;18.60;1.90;;;14.90;99.90;;;;;;7389784;19;20006;-78
2024/02/17 00:21:43;;;;;;;13.20;2.30;;;14.90;99.90;;;;;;7389198;19;20015;-78
2024/02/17 00:24:13;;;;;;;15.38;2.22;;;14.80;99.90;;;;;;7390535;19;20011;-78
2024/02/17 00:26:44;;;;;;;13.05;2.13;;;14.90;99.90;;;;;;7386624;19;20062;-78
2024/02/17 00:29:13;;;;;;;;;;;14.90;99.90;;;;;;7389087;19;20010;-79
2024/02/17 00:31:43;;;;;;;8.10;1.50;;;14.90;99.90;;;;;;7411104;19;19911;-79
2024/02/17 00:34:18;;;;;;;8.48;1.80;;;14.90;99.90;;;;;;7389356;19;20013;-78
2024/02/17 00:36:50;;;;;;;15.73;2.33;;;14.90;99.90;;;;;;7389310;19;20046;-78
2024/02/17 00:39:21;;;;;;;11.40;2.35;;;14.90;99.90;;;;;;7388812;19;20011;-78
2024/02/17 00:41:49;;;;;;;10.82;2.08;;;14.80;99.90;;;;;;7389104;19;19999;-77
2024/02/17 00:44:18;;;;;;;15.60;2.25;;;14.90;99.90;;;;;;7389239;19;20271;-78
2024/02/17 00:46:49;;;;;;;15.60;2.00;;;14.90;99.90;;;;;;7414075;19;20385;-79
2024/02/17 00:49:20;;;;;;;7.95;2.00;;;14.90;99.90;;;;;;7385344;19;20013;-79
2024/02/17 00:51:49;;;;;;;;;;;14.90;99.90;;;;;;7384577;19;20010;-78
2024/02/17 00:54:19;;;;;;;9.18;1.85;;;15.00;99.90;;;;;;7384400;19;19914;-79
2024/02/17 00:56:50;;;;;;;10.00;2.05;;;14.90;99.90;;;;;;7387694;19;20106;-79
2024/02/17 00:59:19;;;;;;;21.38;2.42;;;14.90;99.90;;;;;;7391836;19;20017;-80
2024/02/17 01:01:52;;;;;;;12.35;2.13;;;14.90;99.90;;;;;;7410606;19;20014;-78
2024/02/17 01:04:23;;;;;;;11.02;2.33;;;14.90;99.90;;;;;;7384160;19;20007;-79
2024/02/17 01:06:52;;;;;;;11.10;1.73;;;14.90;99.90;;;;;;7383625;19;20007;-79
2024/02/17 01:09:21;;;;;;;11.10;2.22;;;14.90;99.90;;;;;;7382440;19;20010;-78
2024/02/17 01:11:50;;;;;;;7.70;2.15;;;15.00;99.90;;;;;;7384533;19;20006;-80
2024/02/17 01:14:20;;;;;;;14.25;2.40;;;15.00;99.90;;;;;;7381562;19;20027;-78
2024/02/17 01:16:51;;;;;;;14.00;2.20;;;14.90;99.90;;;;;;7405653;19;20011;-79
2024/02/17 01:19:23;;;;;;;9.23;1.90;;;14.90;99.90;;;;;;7382906;19;20228;-78
2024/02/17 01:21:51;;;;;;;;;;;14.90;99.90;;;;;;7384198;19;20010;-78
2024/02/17 01:24:20;;;;;;;17.30;2.35;;;14.90;99.90;;;;;;7381811;19;19926;-78
2024/02/17 01:26:49;;;;;;;8.32;2.08;;;14.80;99.90;;;;;;7384265;19;20015;-78
2024/02/17 01:29:18;;;;;;;11.38;1.98;;;14.80;99.90;;;;;;7383495;19;20052;-79
2024/02/17 01:31:47;;;;;;;10.50;2.58;;;14.80;99.90;;;;;;7404576;19;20062;-79
2024/02/17 01:34:16;;;;;;;9.70;2.17;;;14.80;99.90;;;;;;7382642;19;20023;-78
2024/02/17 01:36:47;;;;;;;10.75;2.20;;;14.80;99.90;;;;;;7385622;19;20247;-79
2024/02/17 01:39:16;;;;;;;11.02;1.88;;;14.80;99.90;;;;;;7386589;19;20055;-79
2024/02/17 01:41:44;;;;;;;9.63;1.92;;;14.80;99.90;;;;;;7389508;19;20015;-79
2024/02/17 01:44:13;;;;;;;18.67;2.20;;;14.80;99.90;;;;;;7405795;19;20019;-79
2024/02/17 01:46:43;;;;;;;7.93;1.90;;;14.80;99.90;;;;;;7386949;19;20011;-79
2024/02/17 01:49:17;;;;;;;10.52;1.83;;;14.80;99.90;;;;;;7385737;19;20007;-79
2024/02/17 01:51:49;;;;;;;10.43;1.90;;;14.80;99.90;;;;;;7385581;19;20007;-78
2024/02/17 01:54:19;;;;;;;9.35;2.00;;;14.80;99.90;;;;;;7384575;19;20020;-82
2024/02/17 01:56:48;;;;;;;14.80;1.63;;;14.90;99.90;;;;;;7386320;19;20002;-80
2024/02/17 01:59:17;;;;;;;13.65;2.25;;;14.80;99.90;;;;;;7395370;19;20007;-78
2024/02/17 02:01:47;;;;;;;12.73;1.90;;;14.80;99.90;;;;;;7402370;19;20007;-79
2024/02/17 02:04:16;;;;;;;6.22;1.65;;;14.80;99.90;;;;;;7382363;19;20074;-79
2024/02/17 02:06:44;;;;;;;11.18;1.95;;;14.80;99.90;;;;;;7382852;19;20032;-79
2024/02/17 02:09:21;;;;;;;15.00;2.33;;;14.70;99.90;;;;;;7381952;19;20066;-79
2024/02/17 02:11:49;;;;;;;9.43;2.20;;;14.70;99.90;;;;;;7382085;19;20007;-79
2024/02/17 02:14:20;;;;;;;17.50;2.28;;;14.70;99.90;;;;;;7403399;19;20006;-79
2024/02/17 02:16:49;;;;;;;17.02;1.73;;;14.70;99.90;;;;;;7382650;19;20030;-79
2024/02/17 02:19:19;;;;;;;10.40;1.67;;;14.70;99.90;;;;;;7383404;19;20021;-80
2024/02/17 02:21:49;;;;;;;12.38;2.25;;;14.70;99.90;;;;;;7393264;19;20006;-80
2024/02/17 02:24:20;;;;;;;17.17;2.45;;;14.70;99.90;;;;;;7392748;19;20009;-80
2024/02/17 02:26:51;;;;;;;14.82;2.30;;;14.70;99.90;;;;;;7393349;19;20385;-80
2024/02/17 02:29:20;;;;;;;;;;;14.70;99.90;;;;;;7426014;19;20003;-80
2024/02/17 02:31:50;;;;;;;13.13;2.00;;;14.70;99.90;;;;;;7409986;19;19911;-78
2024/02/17 02:34:22;;;;;;;5.25;1.73;;;14.70;99.90;;;;;;7410367;19;20022;-78
2024/02/17 02:36:50;;;;;;;;;;;14.60;99.90;;;;;;7409502;19;20003;-78
2024/02/17 02:39:19;;;;;;;4.75;1.40;;;14.70;99.90;;;;;;7409894;19;19915;-78
2024/02/17 02:41:51;;;;;;;13.70;2.35;;;14.60;99.90;;;;;;7400123;19;20021;-79
2024/02/17 02:44:22;;;;;;;10.07;1.50;;;14.60;99.90;;;;;;7413411;19;20035;-80
2024/02/17 02:46:51;;;;;;;10.88;2.17;;;14.60;99.90;;;;;;7390746;19;20006;-80
2024/02/17 02:49:20;;;;;;;16.85;2.63;;;14.60;99.90;;;;;;7392624;19;20092;-77
2024/02/17 02:51:49;;;;;;;14.70;2.25;;;14.60;99.90;;;;;;7388970;19;20005;-78
2024/02/17 02:54:21;;;;;;;12.95;2.28;;;14.60;99.90;;;;;;7386083;19;20014;-79
2024/02/17 02:56:50;;;;;;;13.00;1.83;;;14.60;99.90;;;;;;7386102;19;20018;-78
2024/02/17 02:59:21;;;;;;;8.68;1.98;;;14.60;99.90;;;;;;7406120;19;20006;-79
2024/02/17 03:01:50;;;;;;;10.73;2.42;;;14.60;99.90;;;;;;7385473;19;20059;-79
2024/02/17 03:04:19;;;;;;;8.25;1.95;;;14.60;99.90;;;;;;7389502;19;20006;-79
2024/02/17 03:06:48;;;;;;;11.40;2.03;;;14.60;99.90;;;;;;7386000;19;20024;-79
2024/02/17 03:09:16;;;;;;;12.05;1.95;;;14.60;99.90;;;;;;7386550;19;20013;-78
2024/02/17 03:11:48;;;;;;;15.40;2.20;;;14.70;99.90;;;;;;7384389;19;20007;-79
2024/02/17 03:14:17;;;;;;;10.88;2.17;;;14.60;99.90;;;;;;7405897;19;20038;-78
2024/02/17 03:16:49;;;;;;;14.70;1.80;;;14.60;99.90;;;;;;7384886;19;20086;-78
2024/02/17 03:19:17;;;;;;;11.68;1.65;;;14.70;99.90;;;;;;7386593;19;20034;-78
2024/02/17 03:21:46;;;;;;;24.23;2.38;;;14.70;99.90;;;;;;7385788;19;20071;-77
2024/02/17 03:24:15;;;;;;;8.63;2.38;;;14.70;99.90;;;;;;7385013;19;20023;-79
2024/02/17 03:26:44;;;;;;;5.78;2.00;;;14.70;99.90;;;;;;7387299;19;20222;-78
2024/02/17 03:29:12;;;;;;;6.68;2.08;;;14.70;99.90;;;;;;7412729;19;20048;-79
2024/02/17 03:31:41;;;;;;;12.77;2.30;;;14.60;99.90;;;;;;7388019;19;20003;-79
2024/02/17 03:34:14;;;;;;;21.80;2.20;;;14.70;99.90;;;;;;7385968;19;20007;-79
2024/02/17 03:36:42;;;;;;;7.50;1.92;;;14.60;99.90;;;;;;7385694;19;20164;-79
2024/02/17 03:39:12;;;;;;;12.00;2.38;;;14.70;99.90;;;;;;7387324;19;20031;-79
2024/02/17 03:41:41;;;;;;;13.05;1.88;;;14.70;99.90;;;;;;7388812;19;20046;-79
2024/02/17 03:44:09;;;;;;;11.68;2.30;;;14.70;99.90;;;;;;7409276;19;20022;-79
2024/02/17 03:46:38;;;;;;;9.00;2.08;;;14.40;99.90;;;;;;7385272;19;20407;-79
2024/02/17 03:49:07;;;;;;;12.15;2.33;;;14.50;99.90;;;;;;7384097;19;20007;-79
2024/02/17 03:51:38;;;;;;;9.10;2.63;;;14.50;99.90;;;;;;7383186;19;19999;-78
2024/02/17 03:54:07;;;;;;;;;;;14.50;99.90;;;;;;7385438;19;20003;-79
2024/02/17 03:56:36;;;;;;;8.68;1.90;;;14.60;99.90;;;;;;7382235;19;19911;-80
2024/02/17 03:59:04;;;;;;;19.45;2.55;;;14.70;99.90;;;;;;7406431;19;20011;-78
2024/02/17 04:01:37;;;;;;;9.15;2.20;;;14.70;99.90;;;;;;7384031;19;20078;-78
2024/02/17 04:04:06;;;;;;;13.38;2.58;;;14.70;99.90;;;;;;7383855;19;20378;-78
2024/02/17 04:06:34;;;;;;;15.65;2.45;;;14.70;99.90;;;;;;7384318;19;20014;-80
2024/02/17 04:09:06;;;;;;;13.32;2.40;;;14.70;99.90;;;;;;7384557;19;20014;-79
2024/02/17 04:11:35;;;;;;;11.65;2.03;;;14.70;99.90;;;;;;7399386;19;20019;-78
2024/02/17 04:14:04;;;;;;;10.43;2.28;;;14.70;99.90;;;;;;7406505;19;20003;-80
2024/02/17 04:16:33;;;;;;;14.25;2.10;;;14.70;99.90;;;;;;7383627;19;20027;-78
2024/02/17 04:19:02;;;;;;;16.33;2.63;;;14.70;99.90;;;;;;7383556;19;20003;-78
2024/02/17 04:21:31;;;;;;;11.02;2.40;;;14.70;99.90;;;;;;7385154;19;20035;-79
2024/02/17 04:24:00;;;;;;;14.02;2.67;;;14.60;99.90;;;;;;7385960;19;20018;-79
2024/02/17 04:26:32;;;;;;;11.90;2.35;;;14.70;99.90;;;;;;7409125;19;20018;-79
2024/02/17 04:29:02;;;;;;;15.02;2.38;;;14.70;99.90;;;;;;7384665;19;20010;-79
2024/02/17 04:31:31;;;;;;;7.80;2.13;;;14.60;99.90;;;;;;7382993;19;20003;-78
2024/02/17 04:34:00;;;;;;;10.82;2.30;;;14.60;99.90;;;;;;7383364;19;20011;-81
2024/02/17 04:36:30;;;;;;;10.45;2.25;;;14.60;99.90;;;;;;7387096;19;20003;-79
2024/02/17 04:38:59;;;;;;;17.38;2.20;;;14.60;99.90;;;;;;7386551;19;19995;-79
2024/02/17 04:41:27;;;;;;;11.93;2.47;;;14.60;99.90;;;;;;7405312;19;20054;-79
2024/02/17 04:43:59;;;;;;;10.80;2.30;;;14.60;99.90;;;;;;7380319;19;20010;-80
2024/02/17 04:46:27;;;;;;;13.05;2.25;;;14.60;99.90;;;;;;7382889;19;20093;-79
2024/02/17 04:48:56;;;;;;;8.98;2.30;;;14.60;99.90;;;;;;7383890;19;20028;-80
2024/02/17 04:51:25;;;;;;;10.00;2.30;;;14.60;99.90;;;;;;7383562;19;20023;-79
2024/02/17 04:53:54;;;;;;;10.32;2.50;;;14.60;99.90;;;;;;7382310;19;20255;-78
2024/02/17 04:56:27;;;;;;;12.18;2.40;;;14.60;99.90;;;;;;7405311;19;20020;-79
2024/02/17 04:58:58;;;;;;;14.55;2.30;;;14.60;99.90;;;;;;7385722;19;20018;-79
2024/02/17 05:01:27;;;;;;;;;;;14.60;99.90;;;;;;7400090;19;20019;-81
2024/02/17 05:03:56;;;;;;;10.38;2.20;;;14.60;99.90;;;;;;7399459;19;19938;-80
2024/02/17 05:06:24;;;;;;;14.32;2.47;;;14.60;99.90;;;;;;7397078;19;20038;-79
2024/02/17 05:08:53;;;;;;;9.48;2.60;;;14.60;99.90;;;;;;7393765;19;20023;-78
2024/02/17 05:11:22;;;;;;;36.00;3.05;;;14.60;99.90;;;;;;7427559;19;20007;-79
2024/02/17 05:13:52;;;;;;;8.00;2.40;;;14.60;99.90;;;;;;7388290;19;20216;-79
2024/02/17 05:16:25;;;;;;;12.13;2.60;;;14.60;99.90;;;;;;7384956;19;20014;-78
2024/02/17 05:18:54;;;;;;;12.43;2.70;;;14.60;99.90;;;;;;7386188;19;20011;-79
2024/02/17 05:21:23;;;;;;;14.27;2.17;;;14.60;99.90;;;;;;7385381;19;20019;-78
2024/02/17 05:23:52;;;;;;;8.20;1.85;;;14.60;99.90;;;;;;7383222;19;20007;-77
2024/02/17 05:26:20;;;;;;;13.43;2.90;;;14.60;99.90;;;;;;7402024;19;20010;-78
2024/02/17 05:28:51;;;;;;;14.75;2.38;;;14.60;99.90;;;;;;7380915;19;20301;-79
2024/02/17 05:31:31;;;;;;;16.52;2.95;;;14.60;99.90;;;;;;7384423;19;20313;-79
2024/02/17 05:33:59;;;;;;;9.57;2.33;;;14.50;99.90;;;;;;7384164;19;20023;-78
2024/02/17 05:36:28;;;;;;;16.85;2.72;;;14.50;99.90;;;;;;7381554;19;20015;-78
2024/02/17 05:38:59;;;;;;;10.27;2.55;;;14.50;99.90;;;;;;7379226;19;20006;-78
2024/02/17 05:41:29;;;;;;;13.93;2.47;;;14.50;99.90;;;;;;7402458;19;20010;-79
2024/02/17 05:43:58;;;;;;;10.13;2.22;;;14.50;99.90;;;;;;7380172;19;20066;-78
2024/02/17 05:46:31;;;;;;;11.70;2.60;;;14.50;99.90;;;;;;7380464;19;20034;-79
2024/02/17 05:49:02;;;;;;;9.77;2.40;;;14.50;99.90;;;;;;7381224;19;20005;-79
2024/02/17 05:51:31;;;;;;;9.63;2.40;;;14.50;99.90;;;;;;7381283;19;20042;-78
2024/02/17 05:53:59;;;;;;;16.65;2.28;;;14.50;99.90;;;;;;7380791;19;20259;-78
2024/02/17 05:56:28;;;;;;;17.52;3.03;;;14.50;99.90;;;;;;7401840;19;20038;-79
2024/02/17 05:58:58;;;;;;;17.63;3.15;;;14.50;99.90;;;;;;7383633;19;20018;-79
2024/02/17 06:01:31;;;;;;;10.55;3.03;;;14.50;99.90;;;;;;7382213;19;20015;-78
2024/02/17 06:04:00;;;;;;;9.48;2.50;;;14.40;99.90;;;;;;7381009;19;20007;-78
2024/02/17 06:06:30;;;;;;;14.95;2.95;;;14.40;99.90;;;;;;7381358;19;20366;-79
2024/02/17 06:08:58;;;;;;;11.07;2.25;;;14.40;99.90;;;;;;7380138;19;20017;-79
2024/02/17 06:11:27;;;;;;;17.90;3.10;;;14.40;99.90;;;;;;7402728;19;20024;-79
2024/02/17 06:13:56;;;;;;;6.55;2.63;;;14.40;99.90;;;;;;7381991;19;20014;-79
2024/02/17 06:16:28;;;;;;;7.60;2.75;;;14.40;99.90;;;;;;7381005;19;20006;-79
2024/02/17 06:21:41;;;;;;;13.45;2.47;;;14.40;99.90;;;;;;7381110;19;20011;-79
2024/02/17 06:24:11;;;;;;;11.70;2.60;;;14.40;99.90;;;;;;7382530;19;20045;-78
2024/02/17 06:26:40;;;;;;;9.93;3.38;;;14.40;99.90;;;;;;7403645;19;20024;-79
2024/02/17 06:29:13;;;;;;;10.90;2.90;;;14.40;99.90;;;;;;7382895;19;20026;-77
2024/02/17 06:31:44;;;;;;;13.90;2.97;;;14.40;99.90;;;;;;7380247;19;20022;-78
2024/02/17 06:34:15;;;;;;;10.90;2.78;;;14.40;99.90;;;;;;7379203;19;20043;-78
2024/02/17 06:36:44;;;;;;;9.85;2.70;;;14.40;99.90;;;;;;7378511;19;20003;-78
2024/02/17 06:39:12;;;;;;;11.77;2.80;;;14.40;99.90;;;;;;7380356;19;20099;-79
2024/02/17 06:41:41;;;;;;;16.60;3.03;;;14.40;99.90;;;;;;7400924;19;20063;-79
2024/02/17 06:44:11;;;;;;;8.15;2.50;;;14.40;99.90;;;;;;7378274;19;20003;-78
2024/02/17 06:46:40;;;;;;;13.07;3.28;;;14.40;99.90;;;;;;7379847;19;20014;-79
2024/02/17 06:49:09;;;;;;;11.52;2.72;;;14.40;99.90;;;;;;7377953;19;20015;-78
2024/02/17 06:51:42;;;;;;;8.88;2.90;;;14.40;99.90;;;;;;7379305;19;20020;-79
2024/02/17 06:54:11;;;;;;;15.77;3.15;;;14.40;99.90;;;;;;7377363;19;20026;-78
2024/02/17 06:56:37;;;;;;;12.98;2.88;;;14.40;99.90;;;;;;7399624;19;20244;-79
2024/02/17 06:59:06;;;;;;;19.77;3.00;;;14.40;99.90;;;;;;7377179;19;20429;-78
2024/02/17 07:01:35;;;;;;;6.72;2.33;;;14.40;99.90;;;;;;7377203;19;20006;-79
2024/02/17 07:04:03;;;;;;;12.57;2.65;;;14.40;99.90;;;;;;7378663;19;20006;-80
2024/02/17 07:06:32;;;;;;;10.85;3.17;;;14.40;99.90;;;;;;7383669;19;20030;-80
2024/02/17 07:09:04;;;;;;;10.95;2.85;;;14.40;99.90;;;;;;7390121;19;20006;-79
2024/02/17 07:11:32;;;;;;;;;;;14.40;99.90;;;;;;7408424;19;20011;-79
2024/02/17 07:14:04;;;;;;;7.25;2.47;;;14.40;99.90;;;;;;7383280;19;19930;-79
2024/02/17 07:16:32;;;;;;;14.68;3.25;;;14.40;99.90;;;;;;7385488;19;20011;-79
2024/02/17 07:19:01;;;;;;;17.00;2.90;;;14.40;99.90;;;;;;7389728;19;20032;-79
2024/02/17 07:21:31;;;;;;;9.20;3.08;;;14.40;99.90;;;;;;7388333;19;20560;-79
2024/02/17 07:24:03;;;;;;;14.43;3.05;;;14.40;99.90;;;;;;7385827;19;20228;-79
2024/02/17 07:26:31;;;;;;;17.48;3.25;;;14.40;99.90;;;;;;7408217;19;20247;-79
2024/02/17 07:29:01;;;;;;;9.43;2.80;;;14.40;99.90;;;;;;7386176;19;20007;-79
2024/02/17 07:31:31;;;;;;;15.65;2.63;;;14.50;99.90;;;;;;7387542;19;20017;-82
2024/02/17 07:33:59;;;;;;;8.13;2.83;;;14.50;99.90;;;;;;7390369;19;20011;-79
2024/02/17 07:36:28;;;;;;;13.50;3.13;;;14.50;99.90;;;;;;7393755;19;20028;-79
2024/02/17 07:38:57;;;;;;;14.82;2.72;;;14.50;99.90;;;;;;7394949;19;20377;-78
2024/02/17 07:41:29;;;;;;;9.98;2.70;;;14.60;99.90;;;;;;7413388;19;20007;-78
2024/02/17 07:43:58;;;;;;;9.02;2.60;;;14.50;99.90;;;;;;7390229;19;20011;-78
2024/02/17 07:46:27;;;;;;;7.32;2.50;;;14.60;99.90;;;;;;7385766;19;20015;-78
2024/02/17 07:48:56;;;;;;;9.77;2.67;;;14.60;99.90;;;;;;7385151;19;20006;-78
2024/02/17 07:51:25;;;;;;;11.60;2.33;;;14.50;99.90;;;;;;7385543;19;20014;-78
2024/02/17 07:53:55;;;;;;;12.07;3.03;;;14.50;99.90;;;;;;7406118;19;20018;-78
2024/02/17 07:56:24;;;;;;;12.85;3.55;;;14.60;99.90;;;;;;7384451;19;20013;-79
2024/02/17 07:58:55;;;;;;;10.57;2.92;;;14.60;99.90;;;;;;7388060;19;20045;-79
2024/02/17 08:01:24;;;;;;;10.20;3.00;;;14.60;99.90;;;;;;7387655;19;20042;-79
2024/02/17 08:03:53;;;;;;;9.43;2.70;;;14.60;99.90;;;;;;7384733;19;20006;-78
2024/02/17 08:06:22;;;;;;;19.13;3.22;;;14.60;99.90;;;;;;7384369;19;20064;-78
2024/02/17 08:08:51;;;;;;;25.95;6.18;;;14.70;99.90;;;;;;7406725;19;20027;-77
2024/02/17 08:11:19;;;;;;;25.45;6.88;;;14.70;99.90;;;;;;7384011;19;20019;-78
2024/02/17 08:13:48;;;;;;;23.27;6.28;;;14.80;99.90;;;;;;7386736;19;20010;-77
2024/02/17 08:16:22;;;;;;;14.07;4.60;;;14.80;99.90;;;;;;7389912;19;20015;-78
2024/02/17 08:18:51;;;;;;;20.73;4.85;;;14.80;99.90;;;;;;7385393;19;20083;-78
2024/02/17 08:21:22;;;;;;;14.15;3.25;;;14.90;99.90;;;;;;7389536;19;20038;-78
2024/02/17 08:23:58;;;;;;;15.18;4.22;;;14.80;99.90;;;;;;7412144;19;20027;-80
2024/02/17 08:26:48;;;;;;;21.85;4.18;;;14.90;99.90;;;;;;7390174;19;20345;-80
2024/02/17 08:29:27;;;;;;;;;;;;;;;;;;;;;
2024/02/17 08:32:06;;;;;;;146.57;53.08;;;14.90;99.90;;;;;;7387749;19;20009;-79
2024/02/17 08:34:40;;;;;;;88.28;32.30;;;14.90;99.90;;;;;;7391025;19;20031;-79
2024/02/17 08:40:26;;;;;;;136.50;50.58;;;14.90;99.90;;;;;;7386607;19;20372;-80
2024/02/17 08:43:16;;;;;;;94.32;31.35;;;14.90;99.90;;;;;;7389541;19;20010;-79
2024/02/17 08:45:47;;;;;;;53.75;15.88;;;14.90;99.90;;;;;;7389047;19;20015;-79
2024/02/17 08:48:32;;;;;;;;;;;;;;;;;;;;;
2024/02/17 08:51:08;;;;;;;37.70;12.68;;;15.00;99.90;;;;;;7410901;19;20011;-79
2024/02/17 08:53:39;;;;;;;29.38;8.32;;;15.00;99.90;;;;;;7393517;19;20006;-79
2024/02/17 08:56:18;;;;;;;35.58;8.57;;;15.10;99.90;;;;;;7392168;19;20070;-81
2024/02/17 08:58:50;;;;;;;25.20;7.93;;;15.10;99.90;;;;;;7391307;19;20027;-80
2024/02/17 09:01:31;;;;;;;17.52;4.70;;;15.20;99.90;;;;;;7390390;19;20066;-80
2024/02/17 09:04:14;;;;;;;21.23;3.08;;;15.30;99.90;;;;;;7389708;19;20010;-81
2024/02/17 09:06:49;;;;;;;15.93;2.47;;;15.30;99.90;;;;;;7390393;19;20014;-77
2024/02/17 09:09:34;;;;;;;11.40;2.25;;;15.30;99.90;;;;;;7390586;19;20003;-78
2024/02/17 09:12:14;;;;;;;12.90;2.67;;;15.30;99.90;;;;;;7414392;19;20046;-79
2024/02/17 09:14:53;;;;;;;7.13;2.47;;;15.40;99.90;;;;;;7388908;19;20003;-78
2024/02/17 09:17:21;;;;;;;13.95;2.22;;;15.40;99.90;;;;;;7390399;19;20036;-79
2024/02/17 09:20:00;;;;;;;12.57;2.75;;;15.40;99.90;;;;;;7389880;19;20026;-79
2024/02/17 09:22:35;;;;;;;12.70;2.67;;;15.40;99.90;;;;;;7392069;19;20006;-79
2024/02/17 09:25:09;;;;;;;10.27;2.15;;;15.30;99.90;;;;;;7391620;19;20030;-80
2024/02/17 09:27:38;;;;;;;16.58;2.55;;;15.20;99.90;;;;;;7390112;19;19999;-80
2024/02/17 09:30:10;;;;;;;9.70;2.63;;;15.20;99.90;;;;;;7409704;19;20357;-80
2024/02/17 09:32:49;;;;;;;;;;;;;;;;;;;;;
2024/02/17 09:35:24;;;;;;;26.38;2.72;;;15.00;99.90;;;;;;7387875;19;20003;-80
2024/02/17 09:37:55;;;;;;;9.82;2.35;;;15.00;99.90;;;;;;7389019;19;20014;-80
2024/02/17 09:40:29;;;;;;;11.13;2.45;;;15.00;99.90;;;;;;7389434;19;20014;-78
2024/02/17 09:42:59;;;;;;;11.70;2.30;;;15.00;99.90;;;;;;7390333;19;20013;-80
2024/02/17 09:45:33;;;;;;;19.90;2.83;;;15.00;99.90;;;;;;7390790;19;20023;-80
2024/02/17 09:48:30;;;;;;;21.02;2.40;;;14.90;99.90;;;;;;7409814;19;20366;-79
2024/02/17 09:51:13;;;;;;;10.82;2.90;;;14.90;99.90;;;;;;7388323;19;20407;-79
2024/02/17 09:53:43;;;;;;;8.43;2.65;;;14.90;99.90;;;;;;7389866;19;20025;-80
2024/02/17 09:56:18;;;;;;;11.67;2.37;;;15.00;99.90;;;;;;7388364;19;20007;-79
2024/02/17 09:58:49;;;;;;;6.50;2.42;;;15.00;99.90;;;;;;7385524;19;20327;-80
2024/02/17 10:01:20;;;;;;;17.10;2.97;;;15.10;99.90;;;;;;7386169;19;20007;-79
2024/02/17 10:04:04;;;;;;;4.43;1.70;;;15.20;99.90;;;;;;7386749;19;20094;-80
2024/02/17 10:06:38;;;;;;;8.00;2.47;;;15.10;99.90;;;;;;7389474;19;20020;-80
2024/02/17 10:09:10;;;;;;;17.30;2.20;;;15.20;99.90;;;;;;7410918;19;20006;-80
2024/02/17 10:11:47;;;;;;;14.93;2.47;;;15.20;99.90;;;;;;7390612;19;20027;-79
2024/02/17 10:14:30;;;;;;;11.68;2.13;;;15.10;99.90;;;;;;7389225;19;20254;-80
2024/02/17 10:17:11;;;;;;;;;;;;;;;;;;;;;
2024/02/17 10:19:43;;;;;;;13.32;2.67;;;15.10;99.90;;;;;;7390893;19;20107;-79
2024/02/17 10:22:15;;;;;;;;;;;15.10;99.90;;;;;;7387139;19;20067;-81
2024/02/17 10:24:48;;;;;;;;;;;15.00;99.90;;;;;;7385750;19;19918;-81
2024/02/17 10:27:17;;;;;;;7.07;1.90;;;15.10;99.90;;;;;;7387021;19;19923;-79
2024/02/17 10:29:45;;;;;;;16.23;1.90;;;15.10;99.90;;;;;;7406010;19;20010;-80
2024/02/17 10:32:17;;;;;;;8.57;2.13;;;15.20;99.90;;;;;;7383790;19;20023;-79
2024/02/17 10:34:46;;;;;;;;;;;15.00;99.90;;;;;;7382303;19;20007;-79
2024/02/17 10:37:18;;;;;;;11.57;2.03;;;15.00;99.90;;;;;;7383673;19;19914;-79
2024/02/17 10:39:48;;;;;;;10.88;2.28;;;15.10;99.90;;;;;;7384817;19;20027;-80
2024/02/17 10:42:17;;;;;;;6.68;2.10;;;15.20;99.90;;;;;;7416229;19;20068;-84
2024/02/17 10:44:47;;;;;;;15.18;2.00;;;15.20;99.90;;;;;;7396758;19;20006;-84
2024/02/17 10:47:32;;;;;;;10.13;1.58;;;15.20;99.90;;;;;;7395120;19;20034;-81
2024/02/17 10:50:07;;;;;;;7.60;1.60;;;15.10;99.90;;;;;;7391043;19;20006;-78
2024/02/17 10:52:51;;;;;;;4.35;1.30;;;15.20;99.90;;;;;;7392741;19;20011;-76
2024/02/17 10:55:27;;;;;;;14.55;1.73;;;15.20;99.90;;;;;;7388498;19;20361;-77
2024/02/17 10:58:05;;;;;;;4.60;1.77;;;15.30;99.90;;;;;;7392810;19;20006;-77
2024/02/17 11:00:35;;;;;;;9.85;1.77;;;15.40;99.90;;;;;;7395421;19;20002;-78
2024/02/17 11:03:08;;;;;;;9.00;1.58;;;15.50;99.90;;;;;;7413571;19;20239;-78
2024/02/17 11:05:41;;;;;;;5.38;1.60;;;15.30;99.90;;;;;;7390340;19;20078;-77
2024/02/17 11:08:13;;;;;;;15.93;1.77;;;15.10;99.90;;;;;;7389277;19;20031;-77
2024/02/17 11:10:43;;;;;;;10.75;1.85;;;15.10;99.70;;;;;;7391126;19;20026;-78
2024/02/17 11:13:26;;;;;;;4.50;1.60;;;15.20;99.70;;;;;;7392140;19;20014;-78
2024/02/17 11:16:03;;;;;;;14.43;3.33;;;15.40;99.90;;;;;;7390579;19;20003;-79
2024/02/17 11:18:34;;;;;;;11.25;3.00;;;15.50;99.90;;;;;;7389752;19;20014;-78
2024/02/17 11:21:05;;;;;;;8.65;1.85;;;15.50;99.90;;;;;;7414674;19;20223;-81
2024/02/17 11:23:40;;;;;;;9.15;2.25;;;15.60;99.90;;;;;;7393441;19;20015;-87
2024/02/17 11:26:10;;;;;;;13.52;2.00;;;15.60;99.90;;;;;;7391471;19;20014;-77
2024/02/17 11:28:43;;;;;;;10.10;2.10;;;15.70;99.90;;;;;;7393806;19;20078;-84
2024/02/17 11:31:13;;;;;;;10.25;1.45;;;15.60;99.90;;;;;;7392567;19;20035;-77
2024/02/17 11:33:45;;;;;;;8.02;1.50;;;15.70;99.90;;;;;;7391499;19;20020;-77
2024/02/17 11:36:14;;;;;;;9.07;1.90;;;15.70;99.90;;;;;;7410507;19;20017;-78
2024/02/17 11:38:45;;;;;;;13.98;1.83;;;15.70;99.70;;;;;;7391020;19;20010;-76
2024/02/17 11:41:18;;;;;;;14.05;1.85;;;15.50;99.90;;;;;;7391782;19;20696;-77
2024/02/17 11:43:55;;;;;;;16.10;2.10;;;15.50;99.90;;;;;;7393157;19;20250;-81
2024/02/17 11:46:24;;;;;;;7.25;1.77;;;15.50;99.70;;;;;;7388371;19;20407;-78
2024/02/17 11:48:58;;;;;;;9.18;1.60;;;15.60;99.80;;;;;;7390016;19;20030;-77
2024/02/17 11:51:28;;;;;;;16.10;2.08;;;15.60;99.90;;;;;;7409587;19;20006;-77
2024/02/17 11:54:03;;;;;;;7.97;1.93;;;15.70;99.90;;;;;;7391050;19;19998;-77
2024/02/17 11:56:31;;;;;;;7.43;1.45;;;15.60;99.10;;;;;;7390610;19;20010;-77
2024/02/17 11:59:01;;;;;;;6.32;1.30;;;15.40;99.60;;;;;;7390434;19;20003;-78
2024/02/17 12:01:29;;;;;;;7.78;1.73;;;15.40;99.60;;;;;;7388789;19;20038;-77
2024/02/17 12:04:00;;;;;;;17.67;1.90;;;15.60;99.90;;;;;;7387081;19;20018;-78
2024/02/17 12:06:29;;;;;;;10.25;1.48;;;15.70;99.90;;;;;;7394277;19;20030;-77
2024/02/17 12:09:00;;;;;;;4.32;1.33;;;15.80;99.90;;;;;;7410296;19;20019;-77
2024/02/17 12:11:30;;;;;;;9.45;1.60;;;15.90;99.90;;;;;;7386037;19;20327;-77
2024/02/17 12:13:59;;;;;;;8.95;1.50;;;16.10;99.60;;;;;;7386577;19;20030;-78
2024/02/17 12:16:28;;;;;;;7.60;1.60;;;16.10;99.60;;;;;;7385807;19;20054;-78
2024/02/17 12:18:59;;;;;;;6.50;1.40;;;16.10;99.90;;;;;;7385716;19;20006;-78
2024/02/17 12:21:28;;;;;;;5.47;1.33;;;16.20;99.10;;;;;;7410193;19;20035;-79
2024/02/17 12:24:00;;;;;;;11.43;1.58;;;16.30;99.10;;;;;;7392463;19;20015;-79
2024/02/17 12:26:31;;;;;;;;;;;16.40;99.20;;;;;;7388918;19;20022;-78
2024/02/17 12:29:02;;;;;;;9.57;1.45;;;16.40;99.50;;;;;;7389086;19;19918;-79
2024/02/17 12:31:31;;;;;;;7.07;1.33;;;16.50;99.30;;;;;;7389274;19;20010;-78
2024/02/17 12:34:00;;;;;;;8.82;1.40;;;16.60;99.30;;;;;;7390789;19;20017;-79
2024/02/17 12:36:29;;;;;;;10.38;1.75;;;16.70;98.60;;;;;;7414583;19;20059;-78
2024/02/17 12:39:04;;;;;;;10.18;1.42;;;16.70;98.00;;;;;;7403673;19;20022;-77
2024/02/17 12:41:33;;;;;;;9.95;1.55;;;16.70;98.00;;;;;;7402303;19;20015;-77
2024/02/17 12:44:01;;;;;;;7.13;1.83;;;16.60;97.80;;;;;;7403053;19;20003;-78
2024/02/17 12:46:30;;;;;;;13.15;1.70;;;16.60;98.60;;;;;;7399471;19;20007;-77
2024/02/17 12:48:59;;;;;;;10.57;2.15;;;16.50;98.90;;;;;;7398087;19;20027;-78
2024/02/17 12:51:30;;;;;;;8.57;1.60;;;16.60;98.60;;;;;;7412742;19;20014;-77
2024/02/17 12:54:01;;;;;;;8.73;1.38;;;16.50;98.60;;;;;;7389028;19;20017;-78
2024/02/17 12:56:30;;;;;;;6.60;1.88;;;16.60;98.30;;;;;;7386505;19;20587;-79
2024/02/17 12:59:00;;;;;;;12.52;1.80;;;16.70;98.40;;;;;;7387315;19;20006;-78
2024/02/17 13:01:29;;;;;;;11.43;2.05;;;16.80;98.40;;;;;;7386095;19;20386;-78
2024/02/17 13:03:58;;;;;;;6.97;1.80;;;16.90;98.80;;;;;;7385965;19;19996;-78
2024/02/17 13:06:27;;;;;;;16.10;2.13;;;16.80;97.60;;;;;;7406051;19;20031;-78
2024/02/17 13:08:57;;;;;;;8.18;1.58;;;17.00;97.80;;;;;;7386091;19;20097;-78
2024/02/17 13:11:28;;;;;;;8.35;1.60;;;16.80;97.80;;;;;;7384382;19;20267;-77
2024/02/17 13:13:57;;;;;;;14.85;2.08;;;16.90;98.10;;;;;;7386152;19;20057;-79